Terminal Aerodrome Forecast
Issued by NWS Sterling, VA

Current Version | Previous Version | Graphics & Text | Print | Product List | Glossary On
Versions: 1 2 3 4 5 6 7 8 9 10 11 12 13 14 15 16 17 18 19 20 21 22 23 24 25 26
000
FTUS41 KLWX 240800 AAA
TAFIAD
TAF AMD
KIAD 240858Z 2409/2512 18015KT P6SM OVC003 WS020/19040KT
     FM241000 18014KT P6SM OVC003
     FM241300 19012KT P6SM OVC008
     FM241400 19013KT P6SM OVC015
     FM241600 20015G23KT P6SM BKN060
     FM241800 20017G26KT P6SM SCT050
     FM242000 20016G24KT P6SM SCT200
     FM250100 21011KT P6SM SCT250
     FM250500 25007KT P6SM SCT150=

USA.gov is the U.S. government's official web portal to all federal, state and local government web resources and services.